createdAt,value
2019-01-03T00:01:37.002Z,-0.10
2019-01-03T00:04:07.194Z,-0.10
2019-01-03T00:06:52.470Z,-0.10
2019-01-03T00:09:37.884Z,-0.10
2019-01-03T00:12:10.927Z,0.00
2019-01-03T00:14:53.433Z,0.00
2019-01-03T00:17:32.441Z,-0.10
2019-01-03T00:20:02.631Z,-0.10
2019-01-03T00:22:38.683Z,0.00
2019-01-03T00:25:11.920Z,0.00
2019-01-03T00:27:59.003Z,0.00
2019-01-03T00:30:29.178Z,0.00
2019-01-03T00:33:11.624Z,0.10
2019-01-03T00:35:58.046Z,0.00
2019-01-03T00:38:33.974Z,0.00
2019-01-03T00:41:16.286Z,0.10
2019-01-03T00:43:49.411Z,0.20
2019-01-03T00:46:34.922Z,0.20
2019-01-03T00:49:11.114Z,0.10
2019-01-03T00:51:41.298Z,-0.10
2019-01-03T00:54:27.683Z,-0.10
2019-01-03T00:57:00.491Z,-0.10
2019-01-03T00:59:30.700Z,-0.10
2019-01-03T01:02:06.716Z,0.00
2019-01-03T01:04:42.693Z,-0.10
2019-01-03T01:07:21.854Z,0.00
2019-01-03T01:10:08.440Z,0.00
2019-01-03T01:12:54.856Z,0.00
2019-01-03T01:15:30.750Z,0.00
2019-01-03T01:18:10.036Z,0.00
2019-01-03T01:20:52.459Z,0.10
2019-01-03T01:23:38.910Z,0.20
2019-01-03T01:26:18.280Z,0.30
2019-01-03T01:28:48.481Z,0.10
2019-01-03T01:31:18.663Z,0.00
2019-01-03T01:34:05.202Z,-0.10
2019-01-03T01:36:53.476Z,0.10
2019-01-03T01:39:40.177Z,-0.10
2019-01-03T01:42:10.376Z,-0.20
2019-01-03T01:44:49.574Z,-0.30
2019-01-03T01:47:28.924Z,-0.50
2019-01-03T01:50:02.336Z,-0.60
2019-01-03T01:52:38.720Z,-0.80
2019-01-03T01:55:08.997Z,-0.60
2019-01-03T01:57:47.950Z,-0.60
2019-01-03T02:00:30.169Z,-0.50
2019-01-03T02:03:03.454Z,-0.50
2019-01-03T02:05:49.819Z,-0.80
2019-01-03T02:08:29.131Z,-0.80
2019-01-03T02:11:02.015Z,-0.70
2019-01-03T02:13:48.690Z,-0.70
2019-01-03T02:16:37.022Z,-0.80
2019-01-03T02:19:23.803Z,-0.90
2019-01-03T02:22:06.075Z,-0.90
2019-01-03T02:24:52.686Z,-0.90
2019-01-03T02:27:25.579Z,-1.00
2019-01-03T02:30:04.528Z,-0.90
2019-01-03T02:32:34.728Z,-0.80
2019-01-03T02:35:07.740Z,-0.80
2019-01-03T02:37:56.086Z,-0.80
2019-01-03T02:40:42.403Z,-0.90
2019-01-03T02:43:18.820Z,-1.00
2019-01-03T02:45:49.342Z,-0.70
2019-01-03T02:48:19.537Z,-0.80
2019-01-03T02:50:49.760Z,-0.80
2019-01-03T02:53:36.489Z,-0.80
2019-01-03T02:56:22.909Z,-0.70
2019-01-03T02:59:09.691Z,-0.90
2019-01-03T03:01:49.330Z,-1.00
2019-01-03T03:04:19.593Z,-1.00
2019-01-03T03:07:06.510Z,-0.70
2019-01-03T03:09:52.899Z,-0.70
2019-01-03T03:12:39.662Z,-0.70
2019-01-03T03:15:27.303Z,-0.80
2019-01-03T03:18:12.735Z,-0.70
2019-01-03T03:20:51.746Z,-0.80
2019-01-03T03:23:30.838Z,-0.90
2019-01-03T03:26:07.495Z,-0.90
2019-01-03T03:28:40.784Z,-0.90
2019-01-03T03:31:13.803Z,-0.90
2019-01-03T03:33:47.060Z,-0.90
2019-01-03T03:36:26.102Z,-1.00
2019-01-03T03:39:02.267Z,-1.00
2019-01-03T03:41:35.208Z,-1.20
2019-01-03T03:44:23.519Z,-1.00
2019-01-03T03:46:56.368Z,-0.70
2019-01-03T03:49:42.640Z,-0.80
2019-01-03T03:52:24.820Z,-0.90
2019-01-03T03:55:13.130Z,-1.00
2019-01-03T03:57:49.443Z,-1.00
2019-01-03T04:00:34.611Z,-0.80
2019-01-03T04:03:19.782Z,-0.80
2019-01-03T04:05:59.100Z,-0.80
2019-01-03T04:08:35.540Z,-0.90
2019-01-03T04:11:11.946Z,-1.00
2019-01-03T04:13:42.469Z,-1.00
2019-01-03T04:16:12.587Z,-1.00
2019-01-03T04:18:48.375Z,-1.00
2019-01-03T04:21:27.229Z,-1.20
2019-01-03T04:24:00.183Z,-1.10
2019-01-03T04:26:36.710Z,-0.90
2019-01-03T04:29:15.876Z,-1.00
2019-01-03T04:31:58.151Z,-0.90
2019-01-03T04:34:43.194Z,-0.90
2019-01-03T04:37:28.278Z,-1.00
2019-01-03T04:40:07.328Z,-1.10
2019-01-03T04:42:40.377Z,-1.10
2019-01-03T04:45:10.516Z,-0.90
2019-01-03T04:47:40.711Z,-1.00
2019-01-03T04:50:16.645Z,-1.00
2019-01-03T04:52:49.594Z,-1.00
2019-01-03T04:55:35.027Z,-1.00
2019-01-03T04:58:21.725Z,-1.00
2019-01-03T05:00:55.038Z,-1.00
2019-01-03T05:03:34.171Z,-1.00
2019-01-03T05:06:04.363Z,-0.90
2019-01-03T05:08:51.085Z,-0.90
2019-01-03T05:11:21.261Z,-0.90
2019-01-03T05:13:54.305Z,-0.80
2019-01-03T05:16:40.939Z,-0.90
2019-01-03T05:19:16.890Z,-0.90
2019-01-03T05:21:55.879Z,-1.00
2019-01-03T05:24:42.566Z,-1.00
2019-01-03T05:27:31.088Z,-1.10
2019-01-03T05:30:01.301Z,-1.00
2019-01-03T05:32:31.487Z,-1.00
2019-01-03T05:35:07.682Z,-1.00
2019-01-03T05:37:43.558Z,-1.00
2019-01-03T05:40:22.849Z,-0.90
2019-01-03T05:43:09.271Z,-1.10
2019-01-03T05:45:49.061Z,-1.10
2019-01-03T05:48:31.091Z,-1.00
2019-01-03T05:51:09.910Z,-1.10
2019-01-03T05:53:49.027Z,-1.10
2019-01-03T05:56:19.234Z,-0.90
2019-01-03T05:58:49.354Z,-1.10
2019-01-03T06:01:25.327Z,-1.20
2019-01-03T06:04:13.058Z,-1.30
2019-01-03T06:06:43.270Z,-1.30
2019-01-03T06:09:29.406Z,-1.40
2019-01-03T06:12:16.275Z,-1.10
2019-01-03T06:15:01.485Z,-1.10
2019-01-03T06:17:34.533Z,-1.20
2019-01-03T06:20:21.001Z,-1.30
2019-01-03T06:23:09.413Z,-1.40
2019-01-03T06:25:39.550Z,-1.40
2019-01-03T06:28:09.746Z,-1.50
2019-01-03T06:30:39.961Z,-1.40
2019-01-03T06:33:10.150Z,-1.60
2019-01-03T06:35:53.717Z,-1.50
2019-01-03T06:38:32.994Z,-1.40
2019-01-03T06:41:15.563Z,-1.40
2019-01-03T06:44:03.855Z,-1.40
2019-01-03T06:46:34.076Z,-1.40
2019-01-03T06:49:10.030Z,-1.50
2019-01-03T06:51:55.405Z,-1.30
2019-01-03T06:54:37.470Z,-1.20
2019-01-03T06:57:13.381Z,-1.30
2019-01-03T06:59:55.466Z,-1.20
2019-01-03T07:02:25.606Z,-1.10
2019-01-03T07:04:58.558Z,-1.20
2019-01-03T07:07:31.589Z,-1.30
2019-01-03T07:10:03.301Z,-1.10
2019-01-03T07:12:33.490Z,-1.00
2019-01-03T07:15:09.066Z,-1.10
2019-01-03T07:17:41.798Z,-1.20
2019-01-03T07:20:29.252Z,-1.10
2019-01-03T07:23:05.427Z,-1.10
2019-01-03T07:25:38.134Z,-1.10
2019-01-03T07:28:24.344Z,-1.20
2019-01-03T07:31:10.730Z,-1.20
2019-01-03T07:33:41.256Z,-1.30
2019-01-03T07:36:27.858Z,-1.40
2019-01-03T07:39:03.847Z,-1.50
2019-01-03T07:41:37.049Z,-1.40
2019-01-03T07:44:13.502Z,-1.40
2019-01-03T07:46:43.609Z,-1.30
2019-01-03T07:49:13.819Z,-1.00
2019-01-03T07:51:58.647Z,-1.00
2019-01-03T07:54:45.275Z,-1.00
2019-01-03T07:57:30.816Z,-1.00
2019-01-03T08:00:03.791Z,-1.20
2019-01-03T08:02:49.033Z,-1.00
2019-01-03T08:05:37.242Z,-1.00
2019-01-03T08:08:07.384Z,-1.10
2019-01-03T08:10:37.565Z,-1.20
2019-01-03T08:13:24.233Z,-1.20
2019-01-03T08:16:10.829Z,-1.10
2019-01-03T08:18:43.761Z,-1.00
2019-01-03T08:21:19.494Z,-0.90
2019-01-03T08:24:05.904Z,-0.90
2019-01-03T08:26:42.059Z,-0.80
2019-01-03T08:29:28.460Z,-0.50
2019-01-03T08:32:13.960Z,-0.40
2019-01-03T08:35:00.257Z,-0.40
2019-01-03T08:37:45.268Z,-0.20
2019-01-03T08:40:32.210Z,0.00
2019-01-03T08:43:02.737Z,0.30
2019-01-03T08:45:47.911Z,0.50
2019-01-03T08:48:20.694Z,0.50
2019-01-03T08:50:51.206Z,0.60
2019-01-03T08:53:37.650Z,0.40
2019-01-03T08:56:10.774Z,0.30
2019-01-03T08:58:41.217Z,0.00
2019-01-03T09:01:14.027Z,0.00
2019-01-03T09:03:47.014Z,-0.20
2019-01-03T09:06:17.123Z,-0.10
2019-01-03T09:08:56.288Z,-0.10
2019-01-03T09:11:44.619Z,-0.10
2019-01-03T09:14:31.274Z,-0.10
2019-01-03T09:17:10.329Z,0.00
2019-01-03T09:19:56.506Z,0.00
2019-01-03T09:22:32.083Z,0.00
2019-01-03T09:25:02.302Z,0.00
2019-01-03T09:27:38.465Z,0.00
2019-01-03T09:30:15.233Z,0.00
2019-01-03T09:32:48.273Z,0.00
2019-01-03T09:35:18.565Z,0.00
2019-01-03T09:37:51.730Z,0.20
2019-01-03T09:40:28.042Z,0.30
2019-01-03T09:42:58.223Z,0.30
2019-01-03T09:45:26.790Z,0.20
2019-01-03T09:47:55.330Z,0.20
2019-01-03T09:50:23.892Z,0.20
2019-01-03T09:52:52.426Z,0.20
2019-01-03T09:55:20.980Z,0.20
2019-01-03T09:57:49.850Z,0.20
2019-01-03T10:00:18.421Z,0.30
2019-01-03T10:02:46.958Z,0.40
2019-01-03T10:05:15.531Z,0.40
2019-01-03T10:07:44.079Z,0.40
2019-01-03T10:10:12.645Z,0.40
2019-01-03T10:12:41.173Z,0.50
2019-01-03T10:15:09.738Z,0.30
2019-01-03T10:17:38.269Z,0.40
2019-01-03T10:20:08.359Z,0.50
2019-01-03T10:22:36.914Z,0.80
2019-01-03T10:25:05.885Z,1.00
2019-01-03T10:27:34.402Z,0.90
2019-01-03T10:30:02.940Z,0.90
2019-01-03T10:32:31.514Z,0.80
2019-01-03T10:35:00.044Z,1.00
2019-01-03T10:37:28.603Z,1.10
2019-01-03T10:39:57.161Z,0.90
2019-01-03T10:42:25.735Z,0.90
2019-01-03T10:44:54.266Z,0.90
2019-01-03T10:47:22.830Z,0.90
2019-01-03T10:49:51.298Z,1.00
2019-01-03T10:52:19.858Z,1.00
2019-01-03T10:54:48.315Z,1.00
2019-01-03T10:57:16.883Z,1.00
2019-01-03T10:59:45.432Z,1.00
2019-01-03T11:02:14.001Z,1.10
2019-01-03T11:04:42.534Z,1.30
2019-01-03T11:07:11.075Z,1.40
2019-01-03T11:09:39.641Z,1.30
2019-01-03T11:12:08.170Z,1.50
2019-01-03T11:14:36.663Z,1.50
2019-01-03T11:17:05.202Z,1.50
2019-01-03T11:19:33.686Z,1.20
2019-01-03T11:22:02.150Z,1.30
2019-01-03T11:24:30.716Z,1.30
2019-01-03T11:26:59.262Z,1.20
2019-01-03T11:29:27.836Z,1.20
2019-01-03T11:31:56.374Z,1.00
2019-01-03T11:34:24.931Z,1.10
2019-01-03T11:36:53.463Z,1.20
2019-01-03T11:39:22.370Z,1.20
2019-01-03T11:41:50.903Z,1.30
2019-01-03T11:44:19.739Z,1.50
2019-01-03T11:46:48.283Z,1.50
2019-01-03T11:49:16.842Z,1.50
2019-01-03T11:51:45.318Z,1.40
2019-01-03T11:54:13.899Z,1.40
2019-01-03T11:56:42.437Z,1.30
2019-01-03T11:59:10.980Z,1.20
2019-01-03T12:01:39.549Z,1.40
2019-01-03T12:04:08.086Z,1.50
2019-01-03T12:06:36.648Z,1.50
2019-01-03T12:09:05.934Z,1.50
2019-01-03T12:11:34.512Z,1.50
2019-01-03T12:14:03.323Z,1.60
2019-01-03T12:16:31.946Z,1.80
2019-01-03T12:19:00.421Z,1.90
2019-01-03T12:21:28.909Z,2.00
2019-01-03T12:23:57.437Z,2.00
2019-01-03T12:26:25.935Z,2.00
2019-01-03T12:28:54.469Z,1.90
2019-01-03T12:31:22.972Z,1.90
2019-01-03T12:33:51.438Z,1.90
2019-01-03T12:36:19.998Z,1.90
2019-01-03T12:38:48.535Z,2.10
2019-01-03T12:41:17.026Z,2.20
2019-01-03T12:43:45.637Z,2.10
2019-01-03T12:46:14.215Z,2.10
2019-01-03T12:48:45.555Z,2.10
2019-01-03T12:51:12.957Z,2.10
2019-01-03T12:53:41.494Z,2.20
2019-01-03T12:56:10.321Z,2.30
2019-01-03T12:58:38.858Z,2.50
2019-01-03T13:01:07.429Z,2.30
2019-01-03T13:03:35.972Z,2.20
2019-01-03T13:06:04.947Z,2.10
2019-01-03T13:08:33.479Z,2.40
2019-01-03T13:11:01.937Z,2.50
2019-01-03T13:13:30.794Z,2.60
2019-01-03T13:15:59.326Z,2.50
2019-01-03T13:18:27.959Z,2.50
2019-01-03T13:20:56.493Z,2.40
2019-01-03T13:23:24.988Z,2.40
2019-01-03T13:25:53.593Z,2.20
2019-01-03T13:28:22.152Z,2.30
2019-01-03T13:30:51.562Z,2.10
2019-01-03T13:33:20.130Z,2.00
2019-01-03T13:35:48.737Z,2.20
2019-01-03T13:38:17.303Z,2.40
2019-01-03T13:40:45.839Z,2.40
2019-01-03T13:43:14.407Z,2.60
2019-01-03T13:45:42.961Z,2.60
2019-01-03T13:48:11.526Z,2.50
2019-01-03T13:50:39.985Z,2.40
2019-01-03T13:53:08.899Z,2.40
2019-01-03T13:55:37.440Z,2.40
2019-01-03T13:58:06.006Z,2.40
2019-01-03T14:00:34.622Z,2.40
2019-01-03T14:03:03.180Z,2.20
2019-01-03T14:05:31.780Z,1.90
2019-01-03T14:08:00.342Z,2.20
2019-01-03T14:10:28.878Z,2.30
2019-01-03T14:12:57.445Z,2.40
2019-01-03T14:15:26.063Z,2.40
2019-01-03T14:17:54.615Z,2.40
2019-01-03T14:20:23.318Z,2.30
2019-01-03T14:22:51.954Z,2.30
2019-01-03T14:25:20.414Z,2.30
2019-01-03T14:27:49.046Z,2.20
2019-01-03T14:30:17.574Z,2.20
2019-01-03T14:32:46.074Z,2.20
2019-01-03T14:35:14.603Z,2.10
2019-01-03T14:37:43.174Z,2.10
2019-01-03T14:40:11.701Z,2.00
2019-01-03T14:42:40.279Z,2.00
2019-01-03T14:45:09.056Z,2.00
2019-01-03T14:47:37.630Z,2.00
2019-01-03T14:50:08.913Z,2.10
2019-01-03T14:52:37.722Z,2.30
2019-01-03T14:55:08.756Z,2.30
2019-01-03T14:57:37.298Z,2.30
2019-01-03T15:00:10.812Z,2.20
2019-01-03T15:02:39.282Z,1.90
2019-01-03T15:05:13.755Z,2.00
2019-01-03T15:07:38.114Z,2.10
2019-01-03T15:10:08.219Z,2.10
2019-01-03T15:12:36.762Z,2.10
2019-01-03T15:15:06.976Z,2.20
2019-01-03T15:17:37.050Z,2.20
2019-01-03T15:20:08.666Z,1.90
2019-01-03T15:22:37.222Z,2.00
2019-01-03T15:25:08.555Z,1.90
2019-01-03T15:27:37.096Z,1.80
2019-01-03T15:30:09.403Z,1.90
2019-01-03T15:32:37.987Z,1.90
2019-01-03T15:35:07.362Z,2.00
2019-01-03T15:37:37.047Z,1.80
2019-01-03T15:40:06.919Z,1.80
2019-01-03T15:42:35.510Z,1.70
2019-01-03T15:45:04.941Z,1.80
2019-01-03T15:47:33.555Z,1.70
2019-01-03T15:50:02.396Z,2.00
2019-01-03T15:52:30.938Z,2.20
2019-01-03T15:54:59.456Z,2.10
2019-01-03T15:57:28.003Z,2.10
2019-01-03T15:59:57.539Z,1.90
2019-01-03T16:02:26.079Z,1.80
2019-01-03T16:04:54.679Z,1.80
2019-01-03T16:07:23.217Z,1.70
2019-01-03T16:09:51.769Z,1.80
2019-01-03T16:12:20.356Z,2.10
2019-01-03T16:14:48.898Z,1.90
2019-01-03T16:17:17.812Z,1.80
2019-01-03T16:19:46.350Z,1.60
2019-01-03T16:22:14.942Z,1.80
2019-01-03T16:24:43.417Z,1.70
2019-01-03T16:27:11.999Z,1.60
2019-01-03T16:29:40.582Z,1.50
2019-01-03T16:32:09.126Z,1.30
2019-01-03T16:34:37.731Z,1.20
2019-01-03T16:37:06.289Z,1.20
2019-01-03T16:39:34.829Z,1.30
2019-01-03T16:42:03.484Z,1.30
2019-01-03T16:44:32.227Z,1.30
2019-01-03T16:47:00.766Z,1.30
2019-01-03T16:49:29.355Z,1.30
2019-01-03T16:51:57.826Z,1.40
2019-01-03T16:54:26.416Z,1.30
2019-01-03T16:56:54.958Z,1.30
2019-01-03T16:59:23.471Z,1.40
2019-01-03T17:01:51.945Z,1.50
2019-01-03T17:04:20.520Z,1.50
2019-01-03T17:06:49.072Z,1.50
2019-01-03T17:09:17.667Z,1.50
2019-01-03T17:11:46.278Z,1.50
2019-01-03T17:14:14.824Z,1.40
2019-01-03T17:16:43.490Z,1.40
2019-01-03T17:19:12.038Z,1.40
2019-01-03T17:21:40.628Z,1.40
2019-01-03T17:24:09.171Z,1.50
2019-01-03T17:26:37.762Z,1.90
2019-01-03T17:29:06.313Z,1.80
2019-01-03T17:31:34.897Z,1.70
2019-01-03T17:34:03.437Z,1.50
2019-01-03T17:36:31.976Z,1.60
2019-01-03T17:39:00.558Z,1.90
2019-01-03T17:41:29.039Z,1.60
2019-01-03T17:43:57.634Z,1.70
2019-01-03T17:46:26.184Z,1.80
2019-01-03T17:48:54.728Z,1.80
2019-01-03T17:51:23.576Z,1.80
2019-01-03T17:53:52.103Z,1.60
2019-01-03T17:56:20.652Z,1.30
2019-01-03T17:58:49.233Z,1.40
2019-01-03T18:01:17.894Z,1.30
2019-01-03T18:03:46.654Z,1.30
2019-01-03T18:06:15.191Z,1.20
2019-01-03T18:08:43.720Z,1.20
2019-01-03T18:11:12.339Z,1.40
2019-01-03T18:13:40.911Z,1.80
2019-01-03T18:16:09.495Z,1.90
2019-01-03T18:18:38.043Z,1.70
2019-01-03T18:21:06.623Z,1.50
2019-01-03T18:23:35.263Z,1.50
2019-01-03T18:26:03.947Z,1.60
2019-01-03T18:28:32.515Z,1.40
2019-01-03T18:31:01.054Z,1.50
2019-01-03T18:33:29.629Z,1.60
2019-01-03T18:35:58.171Z,1.80
2019-01-03T18:38:26.752Z,1.70
2019-01-03T18:40:55.295Z,1.60
2019-01-03T18:43:24.140Z,1.40
2019-01-03T18:45:52.692Z,1.50
2019-01-03T18:48:21.277Z,1.60
2019-01-03T18:50:49.883Z,1.50
2019-01-03T18:53:18.456Z,1.50
2019-01-03T18:55:47.008Z,1.50
2019-01-03T18:58:15.586Z,1.50
2019-01-03T19:00:44.129Z,1.40
2019-01-03T19:03:12.713Z,1.30
2019-01-03T19:05:41.597Z,1.30
2019-01-03T19:08:10.174Z,1.30
2019-01-03T19:10:39.066Z,1.50
2019-01-03T19:13:08.054Z,1.40
2019-01-03T19:15:36.702Z,1.30
2019-01-03T19:18:05.719Z,1.20
2019-01-03T19:20:34.446Z,1.20
2019-01-03T19:23:03.017Z,1.20
2019-01-03T19:25:31.771Z,1.20
2019-01-03T19:28:00.314Z,1.20
2019-01-03T19:30:28.893Z,1.10
2019-01-03T19:32:57.471Z,1.10
2019-01-03T19:35:26.018Z,1.10
2019-01-03T19:37:54.588Z,1.20
2019-01-03T19:40:23.130Z,1.10
2019-01-03T19:42:51.727Z,0.90
2019-01-03T19:45:20.433Z,0.80
2019-01-03T19:47:48.998Z,0.90
2019-01-03T19:50:18.020Z,0.90
2019-01-03T19:52:46.685Z,0.90
2019-01-03T19:55:15.343Z,0.80
2019-01-03T19:57:43.900Z,0.70
2019-01-03T20:00:15.018Z,0.80
2019-01-03T20:02:43.908Z,1.00
2019-01-03T20:05:12.689Z,1.20
2019-01-03T20:07:42.164Z,1.30
2019-01-03T20:10:12.450Z,1.10
2019-01-03T20:12:41.129Z,0.80
2019-01-03T20:15:12.011Z,0.50
2019-01-03T20:17:40.546Z,0.40
2019-01-03T20:20:10.497Z,0.50
2019-01-03T20:22:39.186Z,0.50
2019-01-03T20:25:09.619Z,0.50
2019-01-03T20:27:38.236Z,0.30
2019-01-03T20:30:09.980Z,0.30
2019-01-03T20:32:38.609Z,0.50
2019-01-03T20:35:07.836Z,0.70
2019-01-03T20:37:36.450Z,0.50
2019-01-03T20:40:07.689Z,0.50
2019-01-03T20:42:36.333Z,0.20
2019-01-03T20:45:10.536Z,0.20
2019-01-03T20:47:39.139Z,0.10
2019-01-03T20:50:11.743Z,0.00
2019-01-03T20:52:40.362Z,0.10
2019-01-03T20:55:09.287Z,0.10
2019-01-03T20:57:37.912Z,0.10
2019-01-03T21:00:12.326Z,0.10
2019-01-03T21:02:40.926Z,0.10
2019-01-03T21:05:09.530Z,0.10
2019-01-03T21:07:38.075Z,0.10
2019-01-03T21:10:09.674Z,0.10
2019-01-03T21:12:38.526Z,0.10
2019-01-03T21:15:12.884Z,0.20
2019-01-03T21:17:41.743Z,0.40
2019-01-03T21:20:12.683Z,0.50
2019-01-03T21:22:41.588Z,0.40
2019-01-03T21:25:10.932Z,0.50
2019-01-03T21:27:39.724Z,0.50
2019-01-03T21:30:11.325Z,0.40
2019-01-03T21:32:39.926Z,0.40
2019-01-03T21:35:08.556Z,0.50
2019-01-03T21:37:37.210Z,0.60
2019-01-03T21:40:09.006Z,0.60
2019-01-03T21:42:37.751Z,0.60
2019-01-03T21:45:07.246Z,0.50
2019-01-03T21:47:35.979Z,0.40
2019-01-03T21:50:07.167Z,0.30
2019-01-03T21:52:35.840Z,0.20
2019-01-03T21:55:04.833Z,0.10
2019-01-03T21:57:33.386Z,0.10
2019-01-03T22:00:01.974Z,0.10
2019-01-03T22:02:30.515Z,0.30
2019-01-03T22:04:59.132Z,0.30
2019-01-03T22:07:27.679Z,0.40
2019-01-03T22:09:56.234Z,0.50
2019-01-03T22:12:24.842Z,0.50
2019-01-03T22:14:53.315Z,0.40
2019-01-03T22:17:21.871Z,0.50
2019-01-03T22:19:50.461Z,0.60
2019-01-03T22:22:19.006Z,0.50
2019-01-03T22:24:47.518Z,0.50
2019-01-03T22:27:16.074Z,0.50
2019-01-03T22:29:44.682Z,0.50
2019-01-03T22:32:13.234Z,0.40
2019-01-03T22:34:41.822Z,0.40
2019-01-03T22:37:10.299Z,0.30
2019-01-03T22:39:38.895Z,0.30
2019-01-03T22:42:07.450Z,0.30
2019-01-03T22:44:35.995Z,0.30
2019-01-03T22:47:04.582Z,0.40
2019-01-03T22:49:33.142Z,0.50
2019-01-03T22:52:01.740Z,0.30
2019-01-03T22:54:30.286Z,0.30
2019-01-03T22:56:59.801Z,0.40
2019-01-03T22:59:28.360Z,0.40
2019-01-03T23:01:57.290Z,0.40
2019-01-03T23:04:25.860Z,-0.10
2019-01-03T23:06:54.456Z,-0.20
2019-01-03T23:09:23.007Z,-0.10
2019-01-03T23:11:51.629Z,-0.10
2019-01-03T23:14:20.158Z,0.10
2019-01-03T23:16:48.757Z,0.10
2019-01-03T23:19:17.320Z,0.30
2019-01-03T23:21:45.912Z,0.10
2019-01-03T23:24:14.460Z,0.00
2019-01-03T23:26:43.411Z,-0.30
2019-01-03T23:29:12.002Z,-0.30
2019-01-03T23:31:40.586Z,-0.30
2019-01-03T23:34:09.181Z,-0.50
2019-01-03T23:36:37.746Z,-0.50
2019-01-03T23:39:06.831Z,-0.40
2019-01-03T23:41:35.424Z,-0.20
2019-01-03T23:44:04.074Z,0.00
2019-01-03T23:46:32.663Z,-0.10
2019-01-03T23:49:01.293Z,-0.20
2019-01-03T23:51:30.107Z,-0.30
2019-01-03T23:53:58.735Z,-0.40
2019-01-03T23:56:27.330Z,-0.30
2019-01-03T23:58:56.067Z,-0.30
